createdAt,value
2022-12-07T00:00:02.156Z,18.50
2022-12-07T00:01:01.795Z,18.50
2022-12-07T00:02:02.814Z,19.80
2022-12-07T00:03:02.637Z,19.80
2022-12-07T00:04:02.376Z,19.80
2022-12-07T00:05:02.689Z,19.80
2022-12-07T00:06:02.811Z,19.80
2022-12-07T00:07:01.721Z,19.80
2022-12-07T00:08:01.874Z,19.80
2022-12-07T00:09:02.279Z,19.80
2022-12-07T00:10:02.194Z,19.80
2022-12-07T00:11:01.962Z,19.80
2022-12-07T00:12:01.924Z,20.60
2022-12-07T00:13:01.947Z,20.60
2022-12-07T00:14:02.348Z,20.60
2022-12-07T00:15:01.797Z,20.60
2022-12-07T00:16:02.294Z,20.60
2022-12-07T00:17:02.083Z,21.80
2022-12-07T00:18:02.564Z,21.80
2022-12-07T00:19:02.377Z,21.80
2022-12-07T00:20:02.547Z,21.80
2022-12-07T00:21:02.442Z,21.80
2022-12-07T00:22:02.880Z,21.30
2022-12-07T00:23:02.469Z,21.30
2022-12-07T00:24:02.455Z,21.30
2022-12-07T00:25:02.864Z,21.30
2022-12-07T00:26:02.448Z,21.30
2022-12-07T00:27:02.674Z,21.60
2022-12-07T00:28:02.369Z,21.60
2022-12-07T00:29:02.808Z,21.60
2022-12-07T00:30:03.205Z,21.60
2022-12-07T00:31:02.765Z,21.60
2022-12-07T00:32:01.687Z,23.00
2022-12-07T00:33:01.668Z,23.00
2022-12-07T00:34:02.227Z,23.00
2022-12-07T00:35:01.810Z,23.00
2022-12-07T00:36:01.785Z,23.00
2022-12-07T00:37:02.821Z,22.40
2022-12-07T00:38:02.722Z,22.40
2022-12-07T00:39:02.267Z,22.40
2022-12-07T00:40:02.885Z,22.40
2022-12-07T00:41:02.502Z,22.40
2022-12-07T00:42:02.427Z,23.60
2022-12-07T00:43:02.348Z,23.60
2022-12-07T00:44:01.970Z,23.60
2022-12-07T00:45:02.228Z,23.60
2022-12-07T00:46:02.128Z,23.60
2022-12-07T00:47:01.657Z,24.00
2022-12-07T00:48:01.906Z,24.00
2022-12-07T00:49:01.606Z,24.00
2022-12-07T00:50:02.070Z,24.00
2022-12-07T00:51:01.767Z,24.00
2022-12-07T00:52:02.204Z,24.50
2022-12-07T00:53:02.666Z,24.50
2022-12-07T00:54:02.598Z,24.50
2022-12-07T00:55:02.322Z,24.50
2022-12-07T00:56:02.434Z,24.50
2022-12-07T00:57:02.483Z,24.80
2022-12-07T00:58:02.327Z,24.80
2022-12-07T00:59:02.704Z,24.80
2022-12-07T01:00:02.633Z,24.80
2022-12-07T01:01:02.463Z,24.80
2022-12-07T01:02:02.418Z,26.20
2022-12-07T01:03:02.319Z,26.20
2022-12-07T01:04:02.653Z,26.20
2022-12-07T01:05:02.608Z,26.20
2022-12-07T01:06:02.685Z,26.20
2022-12-07T01:07:02.549Z,25.30
2022-12-07T01:08:03.139Z,25.30
2022-12-07T01:09:02.883Z,25.30
2022-12-07T01:10:02.968Z,25.30
2022-12-07T01:11:02.681Z,25.30
2022-12-07T01:12:01.755Z,26.10
2022-12-07T01:13:02.148Z,26.10
2022-12-07T01:14:01.615Z,26.10
2022-12-07T01:15:01.467Z,26.10
2022-12-07T01:16:01.736Z,26.10
2022-12-07T01:17:02.099Z,27.00
2022-12-07T01:18:02.362Z,27.00
2022-12-07T01:19:02.551Z,27.00
2022-12-07T01:20:02.541Z,27.00
2022-12-07T01:21:02.387Z,27.00
2022-12-07T01:22:01.907Z,28.70
2022-12-07T01:23:01.616Z,28.70
2022-12-07T01:24:02.216Z,28.70
2022-12-07T01:25:01.674Z,28.70
2022-12-07T01:26:02.029Z,28.70
2022-12-07T01:27:02.496Z,29.00
2022-12-07T01:28:02.450Z,29.00
2022-12-07T01:29:02.556Z,29.00
2022-12-07T01:30:02.723Z,29.00
2022-12-07T01:31:02.600Z,29.00
2022-12-07T01:32:02.294Z,28.30
2022-12-07T01:33:02.283Z,28.30
2022-12-07T01:34:02.160Z,28.30
2022-12-07T01:35:01.931Z,28.30
2022-12-07T01:36:01.948Z,28.30
2022-12-07T01:37:02.569Z,29.10
2022-12-07T01:38:02.528Z,29.10
2022-12-07T01:39:02.341Z,29.10
2022-12-07T01:40:02.843Z,29.10
2022-12-07T01:41:02.329Z,29.10
2022-12-07T01:42:01.646Z,29.30
2022-12-07T01:43:02.016Z,29.30
2022-12-07T01:44:01.734Z,29.30
2022-12-07T01:45:02.099Z,29.30
2022-12-07T01:46:01.513Z,29.30
2022-12-07T01:47:02.065Z,28.20
2022-12-07T01:48:01.659Z,28.20
2022-12-07T01:49:02.135Z,28.20
2022-12-07T01:50:02.100Z,28.20
2022-12-07T01:51:02.288Z,28.20
2022-12-07T01:52:02.078Z,28.10
2022-12-07T01:53:01.951Z,28.10
2022-12-07T01:54:01.702Z,28.10
2022-12-07T01:55:01.725Z,28.10
2022-12-07T01:56:02.207Z,28.10
2022-12-07T01:57:02.675Z,28.50
2022-12-07T01:58:02.625Z,28.50
2022-12-07T01:59:02.914Z,28.50
2022-12-07T02:00:02.818Z,28.50
2022-12-07T02:01:02.702Z,28.50
2022-12-07T02:02:02.270Z,28.50
2022-12-07T02:03:01.961Z,28.50
2022-12-07T02:04:02.369Z,28.50
2022-12-07T02:05:01.871Z,28.50
2022-12-07T02:06:02.041Z,28.50
2022-12-07T02:07:02.524Z,28.40
2022-12-07T02:08:03.090Z,28.40
2022-12-07T02:09:02.519Z,28.40
2022-12-07T02:10:02.648Z,28.40
2022-12-07T02:11:02.593Z,28.40
2022-12-07T02:12:02.869Z,28.60
2022-12-07T02:13:02.817Z,28.60
2022-12-07T02:14:02.650Z,28.60
2022-12-07T02:15:02.432Z,28.60
2022-12-07T02:16:02.989Z,28.60
2022-12-07T02:17:03.196Z,28.00
2022-12-07T02:18:02.731Z,28.00
2022-12-07T02:19:03.161Z,28.00
2022-12-07T02:20:03.284Z,28.00
2022-12-07T02:21:03.136Z,28.00
2022-12-07T02:22:02.700Z,28.90
2022-12-07T02:23:02.813Z,28.90
2022-12-07T02:24:02.330Z,28.90
2022-12-07T02:25:02.624Z,28.90
2022-12-07T02:26:02.681Z,28.90
2022-12-07T02:27:03.211Z,29.10
2022-12-07T02:28:02.951Z,29.10
2022-12-07T02:29:03.201Z,29.10
2022-12-07T02:30:03.095Z,29.10
2022-12-07T02:31:02.967Z,29.10
2022-12-07T02:32:02.272Z,29.90
2022-12-07T02:33:02.104Z,29.90
2022-12-07T02:34:02.023Z,29.90
2022-12-07T02:35:02.057Z,29.90
2022-12-07T02:36:02.356Z,29.90
2022-12-07T02:37:02.815Z,29.80
2022-12-07T02:38:02.659Z,29.80
2022-12-07T02:39:02.805Z,29.80
2022-12-07T02:40:02.924Z,29.80
2022-12-07T02:41:03.089Z,29.80
2022-12-07T02:42:02.242Z,31.40
2022-12-07T02:43:01.836Z,31.40
2022-12-07T02:44:01.933Z,31.40
2022-12-07T02:45:01.780Z,31.40
2022-12-07T02:46:02.281Z,31.40
2022-12-07T02:47:02.862Z,31.50
2022-12-07T02:48:02.141Z,31.50
2022-12-07T02:49:02.465Z,31.50
2022-12-07T02:50:02.699Z,31.50
2022-12-07T02:51:01.913Z,31.50
2022-12-07T02:52:02.767Z,29.80
2022-12-07T02:53:02.538Z,29.80
2022-12-07T02:54:02.977Z,29.80
2022-12-07T02:55:02.658Z,29.80
2022-12-07T02:56:02.628Z,29.80
2022-12-07T02:57:02.611Z,30.00
2022-12-07T02:58:02.822Z,30.00
2022-12-07T02:59:02.514Z,30.00
2022-12-07T03:00:02.670Z,30.00
2022-12-07T03:01:02.833Z,30.00
2022-12-07T03:02:03.063Z,30.80
2022-12-07T03:03:02.652Z,30.80
2022-12-07T03:04:02.935Z,30.80
2022-12-07T03:05:02.347Z,30.80
2022-12-07T03:06:02.844Z,30.80
2022-12-07T03:07:03.546Z,30.30
2022-12-07T03:08:02.669Z,30.30
2022-12-07T03:09:03.218Z,30.30
2022-12-07T03:10:03.387Z,30.30
2022-12-07T03:11:02.708Z,30.30
2022-12-07T03:12:02.418Z,31.20
2022-12-07T03:13:02.488Z,31.20
2022-12-07T03:14:02.358Z,31.20
2022-12-07T03:15:02.716Z,31.20
2022-12-07T03:16:02.371Z,31.20
2022-12-07T03:17:02.846Z,29.30
2022-12-07T03:18:02.515Z,29.30
2022-12-07T03:19:02.185Z,29.30
2022-12-07T03:20:02.902Z,29.30
2022-12-07T03:21:02.557Z,29.30
2022-12-07T03:22:02.646Z,30.00
2022-12-07T03:23:02.570Z,30.00
2022-12-07T03:24:02.323Z,30.00
2022-12-07T03:25:02.332Z,30.00
2022-12-07T03:26:02.902Z,30.00
2022-12-07T03:27:02.443Z,28.70
2022-12-07T03:28:02.755Z,28.70
2022-12-07T03:29:02.672Z,28.70
2022-12-07T03:30:02.942Z,28.70
2022-12-07T03:31:02.544Z,28.70
2022-12-07T03:32:02.672Z,30.20
2022-12-07T03:33:03.023Z,30.20
2022-12-07T03:34:02.652Z,30.20
2022-12-07T03:35:02.865Z,30.20
2022-12-07T03:36:02.644Z,30.20
2022-12-07T03:37:02.905Z,28.20
2022-12-07T03:38:03.363Z,28.20
2022-12-07T03:39:03.258Z,28.20
2022-12-07T03:40:03.538Z,28.20
2022-12-07T03:41:03.286Z,28.20
2022-12-07T03:42:02.113Z,28.30
2022-12-07T03:43:02.772Z,28.30
2022-12-07T03:44:02.661Z,28.30
2022-12-07T03:45:02.348Z,28.30
2022-12-07T03:46:02.356Z,28.30
2022-12-07T03:47:02.636Z,28.50
2022-12-07T03:48:02.698Z,28.50
2022-12-07T03:49:02.522Z,28.50
2022-12-07T03:50:02.867Z,28.50
2022-12-07T03:51:02.779Z,28.50
2022-12-07T03:52:02.627Z,28.00
2022-12-07T03:53:02.733Z,28.00
2022-12-07T03:54:02.642Z,28.00
2022-12-07T03:55:02.714Z,28.00
2022-12-07T03:56:02.475Z,28.00
2022-12-07T03:57:02.555Z,28.10
2022-12-07T03:58:02.300Z,28.10
2022-12-07T03:59:02.026Z,28.10
2022-12-07T04:00:02.337Z,28.10
2022-12-07T04:01:02.527Z,28.10
2022-12-07T04:02:02.494Z,28.70
2022-12-07T04:03:02.520Z,28.70
2022-12-07T04:04:03.037Z,28.70
2022-12-07T04:05:02.961Z,28.70
2022-12-07T04:06:02.774Z,28.70
2022-12-07T04:07:02.269Z,28.00
2022-12-07T04:08:02.660Z,28.00
2022-12-07T04:09:02.333Z,28.00
2022-12-07T04:10:02.800Z,28.00
2022-12-07T04:11:02.583Z,28.00
2022-12-07T04:12:02.240Z,29.30
2022-12-07T04:13:02.146Z,29.30
2022-12-07T04:14:02.252Z,29.30
2022-12-07T04:15:02.125Z,29.30
2022-12-07T04:16:02.781Z,29.30
2022-12-07T04:17:02.223Z,28.10
2022-12-07T04:18:02.549Z,28.10
2022-12-07T04:19:02.634Z,28.10
2022-12-07T04:20:02.959Z,28.10
2022-12-07T04:21:02.604Z,28.10
2022-12-07T04:22:02.802Z,28.50
2022-12-07T04:23:02.751Z,28.50
2022-12-07T04:24:02.216Z,28.50
2022-12-07T04:25:02.812Z,28.50
2022-12-07T04:26:02.304Z,28.50
2022-12-07T04:27:02.773Z,28.10
2022-12-07T04:28:02.879Z,28.10
2022-12-07T04:29:07.473Z,28.10
2022-12-07T04:30:03.047Z,28.10
2022-12-07T04:31:02.447Z,28.10
2022-12-07T04:32:02.078Z,29.10
2022-12-07T04:33:01.879Z,29.10
2022-12-07T04:34:01.987Z,29.10
2022-12-07T04:35:01.786Z,29.10
2022-12-07T04:36:02.289Z,29.10
2022-12-07T04:37:02.035Z,29.80
2022-12-07T04:38:01.938Z,29.80
2022-12-07T04:39:02.102Z,29.80
2022-12-07T04:40:02.270Z,29.80
2022-12-07T04:41:01.738Z,29.80
2022-12-07T04:42:02.297Z,27.20
2022-12-07T04:43:02.343Z,27.20
2022-12-07T04:44:02.248Z,27.20
2022-12-07T04:45:02.197Z,27.20
2022-12-07T04:46:02.041Z,27.20
2022-12-07T04:47:02.563Z,29.70
2022-12-07T04:48:02.406Z,29.70
2022-12-07T04:49:02.913Z,29.70
2022-12-07T04:50:03.258Z,29.70
2022-12-07T04:51:02.920Z,29.70
2022-12-07T04:52:02.152Z,28.90
2022-12-07T04:53:01.862Z,28.90
2022-12-07T04:54:02.020Z,28.90
2022-12-07T04:55:01.870Z,28.90
2022-12-07T04:56:01.695Z,28.90
2022-12-07T04:57:02.202Z,29.90
2022-12-07T04:58:01.951Z,29.90
2022-12-07T04:59:01.875Z,29.90
2022-12-07T05:00:02.517Z,29.90
2022-12-07T05:01:02.273Z,29.90
2022-12-07T05:02:02.615Z,29.70
2022-12-07T05:03:02.498Z,29.70
2022-12-07T05:04:03.103Z,29.70
2022-12-07T05:05:02.644Z,29.70
2022-12-07T05:06:02.577Z,29.70
2022-12-07T05:07:02.688Z,26.90
2022-12-07T05:08:02.715Z,26.90
2022-12-07T05:09:02.659Z,26.90
2022-12-07T05:10:03.240Z,26.90
2022-12-07T05:11:02.518Z,26.90
2022-12-07T05:12:02.397Z,28.30
2022-12-07T05:13:02.197Z,28.30
2022-12-07T05:14:02.121Z,28.30
2022-12-07T05:15:02.110Z,28.30
2022-12-07T05:16:02.422Z,28.30
2022-12-07T05:17:02.962Z,26.00
2022-12-07T05:18:02.863Z,26.00
2022-12-07T05:19:02.807Z,26.00
2022-12-07T05:20:02.924Z,26.00
2022-12-07T05:21:02.866Z,26.00
2022-12-07T05:22:02.776Z,24.70
2022-12-07T05:23:03.318Z,24.70
2022-12-07T05:24:02.834Z,24.70
2022-12-07T05:25:03.165Z,24.70
2022-12-07T05:26:02.951Z,24.70
2022-12-07T05:27:02.314Z,24.40
2022-12-07T05:28:02.201Z,24.40
2022-12-07T05:29:02.349Z,24.40
2022-12-07T05:30:02.194Z,24.40
2022-12-07T05:31:02.026Z,24.40
2022-12-07T05:32:02.649Z,25.50
2022-12-07T05:33:02.327Z,25.50
2022-12-07T05:34:02.171Z,25.50
2022-12-07T05:35:02.306Z,25.50
2022-12-07T05:36:02.118Z,25.50
2022-12-07T05:37:02.644Z,25.90
2022-12-07T05:38:02.437Z,25.90
2022-12-07T05:39:02.701Z,25.90
2022-12-07T05:40:02.684Z,25.90
2022-12-07T05:41:02.367Z,25.90
2022-12-07T05:42:03.059Z,26.30
2022-12-07T05:43:04.880Z,26.30
2022-12-07T05:44:02.814Z,26.30
2022-12-07T05:45:02.648Z,26.30
2022-12-07T05:46:02.689Z,26.30
2022-12-07T05:47:03.065Z,26.90
2022-12-07T05:48:03.109Z,26.90
2022-12-07T05:49:03.006Z,26.90
2022-12-07T05:50:02.938Z,26.90
2022-12-07T05:51:02.705Z,26.90
2022-12-07T05:52:02.358Z,26.20
2022-12-07T05:53:02.426Z,26.20
2022-12-07T05:54:02.364Z,26.20
2022-12-07T05:55:02.084Z,26.20
2022-12-07T05:56:01.965Z,26.20
2022-12-07T05:57:02.096Z,26.80
2022-12-07T05:58:02.468Z,26.80
2022-12-07T05:59:02.348Z,26.80
2022-12-07T06:00:02.564Z,26.80
2022-12-07T06:01:02.258Z,26.80
2022-12-07T06:02:02.923Z,27.30
2022-12-07T06:03:02.668Z,27.30
2022-12-07T06:04:02.546Z,27.30
2022-12-07T06:05:02.348Z,27.30
2022-12-07T06:06:02.390Z,27.30
2022-12-07T06:07:02.642Z,25.90
2022-12-07T06:08:05.924Z,25.90
2022-12-07T06:09:02.505Z,25.90
2022-12-07T06:10:02.899Z,25.90
2022-12-07T06:11:02.334Z,25.90
2022-12-07T06:12:02.635Z,27.90
2022-12-07T06:13:02.739Z,27.90
2022-12-07T06:14:02.880Z,27.90
2022-12-07T06:15:03.100Z,27.90
2022-12-07T06:16:02.568Z,27.90
2022-12-07T06:17:03.448Z,26.80
2022-12-07T06:18:02.954Z,26.80
2022-12-07T06:19:03.175Z,26.80
2022-12-07T06:20:03.491Z,26.80
2022-12-07T06:21:03.016Z,26.80
2022-12-07T06:22:02.647Z,27.40
2022-12-07T06:23:02.688Z,27.40
2022-12-07T06:24:02.106Z,27.40
2022-12-07T06:25:08.129Z,27.40
2022-12-07T06:26:02.481Z,27.40
2022-12-07T06:27:02.868Z,28.70
2022-12-07T06:28:02.594Z,28.70
2022-12-07T06:29:02.504Z,28.70
2022-12-07T06:30:02.765Z,28.70
2022-12-07T06:31:02.348Z,28.70
2022-12-07T06:32:03.686Z,28.20
2022-12-07T06:33:03.469Z,28.20
2022-12-07T06:34:03.364Z,28.20
2022-12-07T06:35:03.601Z,28.20
2022-12-07T06:36:03.160Z,28.80
2022-12-07T06:37:02.737Z,28.80
2022-12-07T06:38:02.737Z,28.80
2022-12-07T06:39:02.276Z,28.80
2022-12-07T06:40:02.688Z,28.80
2022-12-07T06:41:02.591Z,26.00
2022-12-07T06:42:02.774Z,26.00
2022-12-07T06:43:02.751Z,26.00
2022-12-07T06:44:02.379Z,26.00
2022-12-07T06:45:02.217Z,26.00
2022-12-07T06:46:02.368Z,26.50
2022-12-07T06:47:31.767Z,26.50
2022-12-07T06:48:02.473Z,26.50
2022-12-07T06:49:02.911Z,26.50
2022-12-07T06:50:03.050Z,26.50
2022-12-07T06:51:02.399Z,22.30
2022-12-07T06:52:02.800Z,22.30
2022-12-07T06:53:02.915Z,22.30
2022-12-07T06:54:02.509Z,22.30
2022-12-07T06:55:02.301Z,22.30
2022-12-07T06:56:02.624Z,20.50
2022-12-07T06:57:03.522Z,20.50
2022-12-07T06:58:03.407Z,20.50
2022-12-07T06:59:03.289Z,20.50
2022-12-07T07:00:03.448Z,20.50
2022-12-07T07:01:03.485Z,20.30
2022-12-07T07:02:02.786Z,20.30
2022-12-07T07:03:02.245Z,20.30
2022-12-07T07:04:02.883Z,20.30
2022-12-07T07:05:02.463Z,20.30
2022-12-07T07:06:02.336Z,19.00
2022-12-07T07:07:02.008Z,19.00
2022-12-07T07:09:02.308Z,19.00
2022-12-07T07:10:02.307Z,19.00
2022-12-07T07:11:01.681Z,19.70
2022-12-07T07:12:01.768Z,19.70
2022-12-07T07:13:01.873Z,19.70
2022-12-07T07:14:02.387Z,19.70
2022-12-07T07:15:02.384Z,19.70
2022-12-07T07:16:02.042Z,19.80
2022-12-07T07:17:02.114Z,19.80
2022-12-07T07:18:07.539Z,19.80
2022-12-07T07:19:02.033Z,19.80
2022-12-07T07:20:02.943Z,19.80
2022-12-07T07:21:02.062Z,19.50
2022-12-07T07:22:02.363Z,19.50
2022-12-07T07:23:02.910Z,19.50
2022-12-07T07:24:02.551Z,19.50
2022-12-07T07:25:02.822Z,19.50
2022-12-07T07:26:02.764Z,21.20
2022-12-07T07:27:02.104Z,21.20
2022-12-07T07:28:01.997Z,21.20
2022-12-07T07:29:02.513Z,21.20
2022-12-07T07:30:02.456Z,21.20
2022-12-07T07:31:02.279Z,20.60
2022-12-07T07:32:06.698Z,20.60
2022-12-07T07:33:02.477Z,20.60
2022-12-07T07:34:02.293Z,20.60
2022-12-07T07:35:02.443Z,20.60
2022-12-07T07:36:02.277Z,22.10
2022-12-07T07:37:01.866Z,22.10
2022-12-07T07:38:02.247Z,22.10
2022-12-07T07:39:02.198Z,22.10
2022-12-07T07:40:02.579Z,22.10
2022-12-07T07:41:02.311Z,21.90
2022-12-07T07:42:02.542Z,21.90
2022-12-07T07:43:02.461Z,21.90
2022-12-07T07:44:02.408Z,21.90
2022-12-07T07:45:02.222Z,21.90
2022-12-07T07:46:02.206Z,22.30
2022-12-07T07:47:02.191Z,22.30
2022-12-07T07:48:01.907Z,22.30
2022-12-07T07:49:01.721Z,22.30
2022-12-07T07:50:02.509Z,22.30
2022-12-07T07:51:01.535Z,23.50
2022-12-07T07:52:01.617Z,23.50
2022-12-07T07:53:01.821Z,23.50
2022-12-07T07:54:01.799Z,23.50
2022-12-07T07:55:02.181Z,23.50
2022-12-07T07:56:01.751Z,25.00
2022-12-07T07:57:01.867Z,25.00
2022-12-07T07:58:02.012Z,25.00
2022-12-07T07:59:02.121Z,25.00
2022-12-07T08:00:02.175Z,25.00
2022-12-07T08:01:01.772Z,25.30
2022-12-07T08:02:02.388Z,25.30
2022-12-07T08:03:02.550Z,25.30
2022-12-07T08:04:02.499Z,25.30
2022-12-07T08:05:02.207Z,25.30
2022-12-07T08:06:02.329Z,26.00
2022-12-07T08:07:02.843Z,26.00
2022-12-07T08:08:02.685Z,26.00
2022-12-07T08:09:02.371Z,26.00
2022-12-07T08:10:02.945Z,26.00
2022-12-07T08:11:02.257Z,26.50
2022-12-07T08:12:02.082Z,26.50
2022-12-07T08:13:01.850Z,26.50
2022-12-07T08:14:01.929Z,26.50
2022-12-07T08:15:01.811Z,26.50
2022-12-07T08:16:01.862Z,24.80
2022-12-07T08:17:02.645Z,24.80
2022-12-07T08:18:02.634Z,24.80
2022-12-07T08:19:02.645Z,24.80
2022-12-07T08:20:03.168Z,24.80
2022-12-07T08:21:02.388Z,24.50
2022-12-07T08:22:02.321Z,24.50
2022-12-07T08:23:02.212Z,24.50
2022-12-07T08:24:02.269Z,24.50
2022-12-07T08:25:02.301Z,24.50
2022-12-07T08:26:02.270Z,23.50
2022-12-07T08:27:02.816Z,23.50
2022-12-07T08:28:02.800Z,23.50
2022-12-07T08:29:02.824Z,23.50
2022-12-07T08:30:02.974Z,23.50
2022-12-07T08:31:03.078Z,22.90
2022-12-07T08:32:06.608Z,22.90
2022-12-07T08:33:02.205Z,22.90
2022-12-07T08:34:02.199Z,22.90
2022-12-07T08:35:02.708Z,22.90
2022-12-07T08:36:02.316Z,23.90
2022-12-07T08:37:02.543Z,23.90
2022-12-07T08:38:02.483Z,23.90
2022-12-07T08:39:30.428Z,23.90
2022-12-07T08:40:02.765Z,23.90
2022-12-07T08:41:02.393Z,22.60
2022-12-07T08:42:02.872Z,22.60
2022-12-07T08:43:02.691Z,22.60
2022-12-07T08:44:02.736Z,22.60
2022-12-07T08:45:02.299Z,22.60
2022-12-07T08:46:02.371Z,24.10
2022-12-07T08:47:02.294Z,24.10
2022-12-07T08:48:02.339Z,24.10
2022-12-07T08:49:01.868Z,24.10
2022-12-07T08:50:02.249Z,24.10
2022-12-07T08:51:02.246Z,22.40
2022-12-07T08:52:01.963Z,22.40
2022-12-07T08:53:01.984Z,22.40
2022-12-07T08:54:02.369Z,22.40
2022-12-07T08:55:02.324Z,22.40
2022-12-07T08:56:01.911Z,22.30
2022-12-07T08:57:02.475Z,22.30
2022-12-07T08:58:02.112Z,22.30
2022-12-07T08:59:02.248Z,22.30
2022-12-07T09:00:02.319Z,22.30
2022-12-07T09:01:02.444Z,21.80
2022-12-07T09:02:03.408Z,21.80
2022-12-07T09:03:03.628Z,21.80
2022-12-07T09:04:03.425Z,21.80
2022-12-07T09:05:03.624Z,21.80
2022-12-07T09:06:03.803Z,23.10
2022-12-07T09:07:03.658Z,23.10
2022-12-07T09:08:03.280Z,23.10
2022-12-07T09:09:03.439Z,23.10
2022-12-07T09:10:03.498Z,23.10
2022-12-07T09:11:03.742Z,22.10
2022-12-07T09:12:02.628Z,22.10
2022-12-07T09:13:02.457Z,22.10
2022-12-07T09:14:02.776Z,22.10
2022-12-07T09:15:02.885Z,22.10
2022-12-07T09:16:02.815Z,22.30
2022-12-07T09:17:03.413Z,22.30
2022-12-07T09:18:03.344Z,22.30
2022-12-07T09:19:03.317Z,22.30
2022-12-07T09:20:03.477Z,22.30
2022-12-07T09:21:03.484Z,21.90
2022-12-07T09:22:03.816Z,21.90
2022-12-07T09:23:03.424Z,21.90
2022-12-07T09:24:03.311Z,21.90
2022-12-07T09:25:03.274Z,21.90
2022-12-07T09:26:10.276Z,22.60
2022-12-07T09:27:03.073Z,22.60
2022-12-07T09:28:03.360Z,22.60
2022-12-07T09:29:03.071Z,22.60
2022-12-07T09:30:03.473Z,22.60
2022-12-07T09:31:27.229Z,22.00
2022-12-07T09:32:08.257Z,22.00
2022-12-07T09:33:03.541Z,22.00
2022-12-07T09:34:03.383Z,22.00
2022-12-07T09:35:03.496Z,22.00
2022-12-07T09:36:03.394Z,22.10
2022-12-07T09:37:03.111Z,22.10
2022-12-07T09:38:02.777Z,22.10
2022-12-07T09:39:03.052Z,22.10
2022-12-07T09:40:03.669Z,22.10
2022-12-07T09:41:02.935Z,23.50
2022-12-07T09:42:03.325Z,23.50
2022-12-07T09:43:03.150Z,23.50
2022-12-07T09:44:03.106Z,23.50
2022-12-07T09:45:03.532Z,23.50
2022-12-07T09:46:03.260Z,22.30
2022-12-07T09:47:03.274Z,22.30
2022-12-07T09:48:03.127Z,22.30
2022-12-07T09:49:02.730Z,22.30
2022-12-07T09:50:03.026Z,22.30
2022-12-07T09:51:02.828Z,21.90
2022-12-07T09:52:03.155Z,21.90
2022-12-07T09:53:02.729Z,21.90
2022-12-07T09:54:03.379Z,21.90
2022-12-07T09:55:03.082Z,21.90
2022-12-07T09:56:03.345Z,21.50
2022-12-07T09:57:02.541Z,21.50
2022-12-07T09:58:02.980Z,21.50
2022-12-07T09:59:02.599Z,21.50
2022-12-07T10:00:02.872Z,21.50
2022-12-07T10:01:02.799Z,21.60
2022-12-07T10:02:02.308Z,21.60
2022-12-07T10:03:01.981Z,21.60
2022-12-07T10:04:01.711Z,21.60
2022-12-07T10:05:02.224Z,21.60
2022-12-07T10:06:01.716Z,21.70
2022-12-07T10:07:01.892Z,21.70
2022-12-07T10:08:02.472Z,21.70
2022-12-07T10:09:01.984Z,21.70
2022-12-07T10:10:01.823Z,21.70
2022-12-07T10:11:01.798Z,21.40
2022-12-07T10:12:01.863Z,21.40
2022-12-07T10:13:02.451Z,21.40
2022-12-07T10:14:02.031Z,21.40
2022-12-07T10:15:09.568Z,21.40
2022-12-07T10:16:06.777Z,21.20
2022-12-07T10:17:02.060Z,21.20
2022-12-07T10:18:02.261Z,21.20
2022-12-07T10:19:02.168Z,21.20
2022-12-07T10:20:02.645Z,21.20
2022-12-07T10:21:02.429Z,21.30
2022-12-07T10:22:02.324Z,21.30
2022-12-07T10:23:02.258Z,21.30
2022-12-07T10:24:02.561Z,21.30
2022-12-07T10:25:02.562Z,21.30
2022-12-07T10:26:02.502Z,20.90
2022-12-07T10:27:02.721Z,20.90
2022-12-07T10:28:02.611Z,20.90
2022-12-07T10:29:02.551Z,20.90
2022-12-07T10:30:02.594Z,20.90
2022-12-07T10:31:03.036Z,21.50
2022-12-07T10:32:02.021Z,21.50
2022-12-07T10:33:02.066Z,21.50
2022-12-07T10:34:01.993Z,21.50
2022-12-07T10:35:02.763Z,21.50
2022-12-07T10:36:02.475Z,19.30
2022-12-07T10:37:02.378Z,19.30
2022-12-07T10:38:02.263Z,19.30
2022-12-07T10:39:02.314Z,19.30
2022-12-07T10:40:02.788Z,19.30
2022-12-07T10:41:02.836Z,20.30
2022-12-07T10:42:02.512Z,20.30
2022-12-07T10:43:02.951Z,20.30
2022-12-07T10:44:02.688Z,20.30
2022-12-07T10:45:03.026Z,20.30
2022-12-07T10:46:04.064Z,22.50
2022-12-07T10:47:02.402Z,22.50
2022-12-07T10:48:02.463Z,22.50
2022-12-07T10:49:02.277Z,22.50
2022-12-07T10:50:02.436Z,22.50
2022-12-07T10:51:02.483Z,21.60
2022-12-07T10:52:02.400Z,21.60
2022-12-07T10:53:02.893Z,21.60
2022-12-07T10:54:02.622Z,21.60
2022-12-07T10:55:03.081Z,21.60
2022-12-07T10:56:02.963Z,21.50
2022-12-07T10:57:02.170Z,21.50
2022-12-07T10:58:02.024Z,21.50
2022-12-07T10:59:02.004Z,21.50
2022-12-07T11:00:02.211Z,21.50
2022-12-07T11:01:02.365Z,21.00
2022-12-07T11:02:02.865Z,21.00
2022-12-07T11:03:02.780Z,21.00
2022-12-07T11:04:02.573Z,21.00
2022-12-07T11:05:03.016Z,21.00
2022-12-07T11:06:02.632Z,20.50
2022-12-07T11:07:03.087Z,20.50
2022-12-07T11:08:03.504Z,20.50
2022-12-07T11:09:03.046Z,20.50
2022-12-07T11:10:18.696Z,20.50
2022-12-07T11:11:02.795Z,20.80
2022-12-07T11:12:02.567Z,20.80
2022-12-07T11:13:02.353Z,20.80
2022-12-07T11:14:02.547Z,20.80
2022-12-07T11:15:02.393Z,20.80
2022-12-07T11:16:02.570Z,20.30
2022-12-07T11:17:02.233Z,20.30
2022-12-07T11:18:02.132Z,20.30
2022-12-07T11:19:02.208Z,20.30
2022-12-07T11:20:02.818Z,20.30
2022-12-07T11:21:01.993Z,19.30
2022-12-07T11:22:02.517Z,19.30
2022-12-07T11:23:02.964Z,19.30
2022-12-07T11:24:02.668Z,19.30
2022-12-07T11:25:02.293Z,19.30
2022-12-07T11:26:02.548Z,18.90
2022-12-07T11:27:02.661Z,18.90
2022-12-07T11:28:02.835Z,18.90
2022-12-07T11:29:02.701Z,18.90
2022-12-07T11:30:02.833Z,18.90
2022-12-07T11:31:02.918Z,17.60
2022-12-07T11:32:02.302Z,17.60
2022-12-07T11:33:02.339Z,17.60
2022-12-07T11:34:01.874Z,17.60
2022-12-07T11:35:02.016Z,17.60
2022-12-07T11:36:02.504Z,18.00
2022-12-07T11:37:02.858Z,18.00
2022-12-07T11:38:02.484Z,18.00
2022-12-07T11:39:02.510Z,18.00
2022-12-07T11:40:03.406Z,18.00
2022-12-07T11:41:02.539Z,18.50
2022-12-07T11:42:02.236Z,18.50
2022-12-07T11:43:01.966Z,18.50
2022-12-07T11:44:02.554Z,18.50
2022-12-07T11:45:02.448Z,18.50
2022-12-07T11:46:02.099Z,17.90
2022-12-07T11:47:02.777Z,17.90
2022-12-07T11:48:02.358Z,17.90
2022-12-07T11:49:02.920Z,17.90
2022-12-07T11:50:02.646Z,17.90
2022-12-07T11:51:02.612Z,16.10
2022-12-07T11:52:03.133Z,16.10
2022-12-07T11:53:02.800Z,16.10
2022-12-07T11:54:02.969Z,16.10
2022-12-07T11:55:03.212Z,16.10
2022-12-07T11:56:02.859Z,15.10
2022-12-07T11:57:02.644Z,15.10
2022-12-07T11:58:02.411Z,15.10
2022-12-07T11:59:02.334Z,15.10
2022-12-07T12:00:02.802Z,15.10
2022-12-07T12:01:02.513Z,14.20
2022-12-07T12:02:02.329Z,14.20
2022-12-07T12:03:02.070Z,14.20
2022-12-07T12:04:02.116Z,14.20
2022-12-07T12:05:01.825Z,14.20
2022-12-07T12:06:02.317Z,13.90
2022-12-07T12:10:02.920Z,13.90
2022-12-07T12:11:02.569Z,14.60
2022-12-07T12:15:02.134Z,14.60
2022-12-07T12:16:02.395Z,13.80
2022-12-07T12:17:02.768Z,13.80
2022-12-07T12:18:02.507Z,13.80
2022-12-07T12:19:02.367Z,13.80
2022-12-07T12:20:02.149Z,13.80
2022-12-07T12:21:02.696Z,13.40
2022-12-07T12:22:01.768Z,13.40
2022-12-07T12:23:02.330Z,13.40
2022-12-07T12:24:02.107Z,13.40
2022-12-07T12:25:02.430Z,13.40
2022-12-07T12:26:02.237Z,11.20
2022-12-07T12:27:02.072Z,11.20
2022-12-07T12:28:02.624Z,11.20
2022-12-07T12:29:02.481Z,11.20
2022-12-07T12:30:02.247Z,11.20
2022-12-07T12:31:02.155Z,11.00
2022-12-07T12:32:02.379Z,11.00
2022-12-07T12:33:02.475Z,11.00
2022-12-07T12:34:02.951Z,11.00
2022-12-07T12:35:03.496Z,11.00
2022-12-07T12:36:02.909Z,11.40
2022-12-07T12:37:02.767Z,11.40
2022-12-07T12:38:02.130Z,11.40
2022-12-07T12:39:01.974Z,11.40
2022-12-07T12:40:01.902Z,11.40
2022-12-07T12:41:02.242Z,9.90
2022-12-07T12:42:01.787Z,9.90
2022-12-07T12:43:02.132Z,9.90
2022-12-07T12:44:02.616Z,9.90
2022-12-07T12:45:02.521Z,9.90
2022-12-07T12:46:02.382Z,5.60
2022-12-07T12:47:02.041Z,5.60
2022-12-07T12:48:02.863Z,5.60
2022-12-07T12:49:02.279Z,5.60
2022-12-07T12:50:02.635Z,5.60
2022-12-07T12:51:02.452Z,4.70
2022-12-07T12:52:02.336Z,4.70
2022-12-07T12:53:02.011Z,4.70
2022-12-07T12:54:01.823Z,4.70
2022-12-07T12:55:02.074Z,4.70
2022-12-07T12:56:02.143Z,5.20
2022-12-07T12:57:01.715Z,5.20
2022-12-07T12:58:02.220Z,5.20
2022-12-07T12:59:02.627Z,5.20
2022-12-07T13:00:02.660Z,5.20